• Join FlightAware (Why Join?)
  • Login
  • US Flag 
07:55PM EST


 

Airport Tracker/Info


-or-


 

Live Flight TrackerFlight Track Log ✈ CDG4988 ✈ 14-Jul-2013 ✈ ZSHC / HGH - ZSJN / TNA

Flight Track Log - Related Links

Times and Time Zones

All times are in EDT time to prevent confusion due to time zone crossing. See the CDG4988 flight status page for this flight to view local times or setup timezone preferences in your user account.

Time Position Orientation Groundspeed Altitude Reporting Facility
EDT Latitude Longitude Course Direction KTS MPH feet Rate Location/Type
08:15AM 31.1213 120.0280 339° North  Level Estimated
08:16AM 31.2024 119.9909 339° North  Level Estimated
08:17AM 31.2835 119.9538 339° North  Level Estimated
08:18AM 31.3646 119.9166 339° North  Level Estimated
08:19AM 31.4457 119.8793 339° North  Level Estimated
08:20AM 31.5268 119.8420 339° North  Level Estimated
08:21AM 31.6078 119.8046 339° North  Level Estimated
08:22AM 31.6889 119.7672 339° North  Level Estimated
08:23AM 31.7699 119.7297 339° North  Level Estimated
08:24AM 31.8510 119.6921 338° Northwest  Level Estimated
08:25AM 31.9320 119.6544 338° Northwest  Level Estimated
08:26AM 32.0130 119.6167 338° Northwest  Level Estimated
08:27AM 32.0940 119.5789 338° Northwest  Level Estimated
08:28AM 32.1750 119.5411 338° Northwest  Level Estimated
08:29AM 32.2560 119.5031 338° Northwest  Level Estimated
08:30AM 32.3369 119.4651 338° Northwest  Level Estimated
08:31AM 32.4179 119.4271 338° Northwest  Level Estimated
08:32AM 32.4988 119.3889 338° Northwest  Level Estimated
08:33AM 32.5797 119.3508 338° Northwest  Level Estimated
08:34AM 32.6607 119.3125 338° Northwest  Level Estimated
08:35AM 32.7416 119.2742 338° Northwest  Level Estimated
08:36AM 32.8225 119.2358 338° Northwest  Level Estimated
08:37AM 32.9033 119.1973 338° Northwest  Level Estimated
08:38AM 32.9842 119.1588 338° Northwest  Level Estimated
08:39AM 33.0651 119.1201 338° Northwest  Level Estimated
08:40AM 33.1459 119.0815 338° Northwest  Level Estimated
08:41AM 33.2267 119.0427 338° Northwest  Level Estimated
08:42AM 33.3076 119.0039 338° Northwest  Level Estimated
08:43AM 33.3884 118.9650 338° Northwest  Level Estimated
08:44AM 33.4692 118.9260 338° Northwest  Level Estimated
08:45AM 33.5500 118.8870 338° Northwest  Level Estimated
08:46AM 33.6307 118.8478 338° Northwest  Level Estimated
08:47AM 33.7115 118.8087 338° Northwest  Level Estimated
08:48AM 33.7923 118.7694 338° Northwest  Level Estimated
08:49AM 33.8730 118.7301 338° Northwest  Level Estimated
08:50AM 33.9537 118.6907 338° Northwest  Level Estimated
08:51AM 34.0344 118.6512 338° Northwest  Level Estimated
08:52AM 34.1151 118.6116 338° Northwest  Level Estimated
08:53AM 34.1958 118.5720 338° Northwest  Level Estimated
08:54AM 34.2765 118.5322 338° Northwest  Level Estimated
08:55AM 34.3571 118.4924 338° Northwest  Level Estimated
08:56AM 34.4378 118.4526 338° Northwest  Level Estimated
08:57AM 34.5184 118.4126 338° Northwest  Level Estimated
08:58AM 34.5990 118.3726 338° Northwest  Level Estimated
08:59AM 34.6796 118.3325 338° Northwest  Level Estimated
09:00AM 34.7603 118.2923 338° Northwest  Level Estimated
09:01AM 34.8408 118.2521 338° Northwest  Level Estimated
09:02AM 34.9214 118.2117 338° Northwest  Level Estimated
09:03AM 35.0020 118.1713 338° Northwest  Level Estimated
09:04AM 35.0825 118.1308 338° Northwest  Level Estimated
09:05AM 35.1630 118.0903 338° Northwest  Level Estimated
09:06AM 35.2435 118.0496 338° Northwest  Level Estimated
09:07AM 35.3240 118.0089 338° Northwest  Level Estimated
09:08AM 35.4045 117.9680 338° Northwest  Level Estimated
09:09AM 35.4850 117.9271 338° Northwest  Level Estimated
09:10AM 35.5655 117.8862 337° Northwest  Level Estimated
09:11AM 35.6459 117.8451 337° Northwest  Level Estimated
09:12AM 35.7263 117.8039 337° Northwest  Level Estimated
09:13AM 35.8068 117.7627 337° Northwest  Level Estimated
09:14AM 35.8872 117.7214 337° Northwest  Level Estimated
09:15AM 35.9675 117.6800 337° Northwest  Level Estimated
09:16AM 36.0479 117.6385 337° Northwest  Level Estimated
09:17AM 36.1283 117.5970 337° Northwest  Level Estimated
09:18AM 36.2086 117.5553 337° Northwest  Level Estimated
09:19AM 36.2890 117.5136 337° Northwest  Level Estimated
09:20AM 36.3693 117.4717 337° Northwest  Level Estimated
09:21AM 36.4496 117.4298 337° Northwest  Level Estimated
09:22AM 36.5299 117.3878 337° Northwest  Level Estimated
09:23AM 36.6101 117.3458 337° Northwest  Level Estimated
09:24AM 36.6904 117.3036 337° Northwest  Level Estimated
09:25AM 36.7706 117.2613 337° Northwest  Level Estimated
09:26AM 36.8509 117.2190 337° Northwest  Level Estimated
09:27AM 36.8566 117.2160 337° Northwest  Level Estimated
09:28AM 36.8566 117.2160 73° East  Level Estimated
09:29AM 36.8566 117.2160 73° East  Level Estimated
09:30AM 36.8566 117.2160 73° East  Level Estimated
09:31AM 36.8566 117.2160 73° East  Level Estimated
09:32AM 36.8566 117.2160 73° East  Level Estimated
09:33AM 36.8566 117.2160 73° East  Level Estimated
09:34AM 36.8566 117.2160 73° East  Level Estimated
09:35AM 36.8566 117.2160 73° East  Level Estimated
09:36AM 36.8566 117.2160 73° East  Level Estimated
09:37AM 36.8566 117.2160 73° East  Level Estimated
09:38AM 36.8566 117.2160 73° East  Level Estimated
09:39AM 36.8566 117.2160 73° East  Level Estimated
09:40AM 36.8566 117.2160 73° East  Level Estimated
09:41AM 36.8566 117.2160 73° East  Level Estimated